Time;durP1;ratioP1;P1;durP2;ratioP2;P2;SDS_P1;SDS_P2;PMS_P1;PMS_P2;Temp;Humidity;BMP_temperature;BMP_pressure;BME280_temperature;BME280_humidity;BME280_pressure;Samples;Min_cycle;Max_cycle;Signal;HPM_P1;HPM_P2
2021/04/09 00:00:12;;;;;;;20.23;10.37;;;5.40;99.90;;;;;;5071352;28;20691;-80
2021/04/09 00:02:38;;;;;;;19.90;10.60;;;5.30;99.90;;;;;;5061830;28;20200;-80
2021/04/09 00:05:06;;;;;;;18.03;10.20;;;5.20;99.90;;;;;;5063975;28;20235;-81
2021/04/09 00:07:33;;;;;;;21.33;10.97;;;5.20;99.90;;;;;;5069121;28;20205;-80
2021/04/09 00:10:00;;;;;;;20.90;11.10;;;5.10;99.90;;;;;;5069753;28;20197;-80
2021/04/09 00:12:26;;;;;;;19.23;10.07;;;5.00;99.90;;;;;;5075244;28;20258;-80
2021/04/09 00:14:54;;;;;;;22.40;11.00;;;4.90;99.90;;;;;;5075677;28;20667;-80
2021/04/09 00:17:20;;;;;;;19.27;10.37;;;5.00;99.90;;;;;;5075217;28;20285;-79
2021/04/09 00:19:46;;;;;;;21.40;10.57;;;5.10;99.90;;;;;;5075594;28;20333;-79
2021/04/09 00:22:13;;;;;;;21.83;10.23;;;5.10;99.90;;;;;;5074993;28;20748;-79
2021/04/09 00:24:39;;;;;;;17.00;10.13;;;5.10;99.90;;;;;;5075419;28;20284;-79
2021/04/09 00:27:06;;;;;;;18.87;10.03;;;5.00;99.90;;;;;;5074814;28;20279;-79
2021/04/09 00:29:32;;;;;;;20.13;10.37;;;5.00;99.90;;;;;;5074903;28;20200;-79
2021/04/09 00:32:00;;;;;;;21.67;10.83;;;5.00;99.90;;;;;;5065777;28;20249;-79
2021/04/09 00:34:26;;;;;;;19.27;10.40;;;5.00;99.90;;;;;;5075365;28;20193;-80
2021/04/09 00:36:53;;;;;;;19.80;10.53;;;5.00;99.90;;;;;;5074533;28;20729;-79
2021/04/09 00:39:19;;;;;;;19.73;11.57;;;5.00;99.90;;;;;;5064722;28;20280;-80
2021/04/09 00:41:45;;;;;;;22.23;10.63;;;5.00;99.90;;;;;;5074274;28;20291;-79
2021/04/09 00:44:12;;;;;;;21.27;10.43;;;5.00;99.90;;;;;;5075531;28;20250;-79
2021/04/09 00:46:39;;;;;;;19.23;10.20;;;4.90;99.90;;;;;;5074619;28;20204;-79
2021/04/09 00:49:07;;;;;;;20.60;10.93;;;4.90;99.90;;;;;;5075226;28;20194;-80
2021/04/09 00:51:35;;;;;;;18.93;10.77;;;4.90;99.90;;;;;;5074482;28;20219;-79
2021/04/09 00:54:03;;;;;;;20.37;9.80;;;4.90;99.90;;;;;;5074794;28;21634;-79
2021/04/09 00:56:30;;;;;;;18.27;10.03;;;4.90;99.90;;;;;;5072542;28;20293;-79
2021/04/09 00:58:58;;;;;;;22.20;9.67;;;5.00;99.90;;;;;;5074932;28;20207;-79
2021/04/09 01:01:25;;;;;;;18.60;10.47;;;4.90;99.90;;;;;;5075057;28;20231;-79
2021/04/09 01:03:54;;;;;;;20.10;9.67;;;4.90;99.90;;;;;;5074876;28;20220;-80
2021/04/09 01:06:22;;;;;;;16.67;9.73;;;4.90;99.90;;;;;;5074310;28;20260;-80
2021/04/09 01:08:49;;;;;;;18.17;9.60;;;4.90;99.90;;;;;;5072195;28;20342;-79
2021/04/09 01:11:16;;;;;;;20.90;9.70;;;4.80;99.90;;;;;;5074357;28;20223;-79
2021/04/09 01:13:44;;;;;;;15.77;9.83;;;4.90;99.90;;;;;;5074628;28;20207;-79
2021/04/09 01:16:14;;;;;;;20.57;9.40;;;4.90;99.90;;;;;;5072322;28;20195;-79
2021/04/09 01:18:47;;;;;;;19.93;9.80;;;5.00;99.90;;;;;;5063691;28;20245;-79
2021/04/09 01:21:22;;;;;;;16.57;9.97;;;5.00;99.90;;;;;;5073588;28;20193;-79
2021/04/09 01:23:59;;;;;;;22.23;9.83;;;5.00;99.90;;;;;;5071873;28;20197;-79
2021/04/09 01:27:04;;;;;;;17.83;9.43;;;5.10;99.90;;;;;;5073978;28;20625;-80
2021/04/09 01:30:16;;;;;;;20.80;9.53;;;5.10;99.90;;;;;;5072017;28;20201;-80
2021/04/09 01:32:43;;;;;;;19.63;9.63;;;5.10;99.90;;;;;;5072888;28;20229;-79
2021/04/09 01:35:14;;;;;;;16.83;9.40;;;5.10;99.90;;;;;;5071533;28;20284;-79
2021/04/09 01:37:42;;;;;;;17.33;8.80;;;5.10;99.90;;;;;;5074198;28;20201;-79
2021/04/09 01:40:15;;;;;;;22.10;9.50;;;5.10;99.90;;;;;;5071324;28;20217;-79
2021/04/09 01:42:43;;;;;;;18.30;9.23;;;5.00;99.90;;;;;;5062821;28;20393;-79
2021/04/09 01:45:12;;;;;;;16.50;8.90;;;5.00;99.90;;;;;;5071214;28;20308;-79
2021/04/09 01:47:41;;;;;;;16.50;8.93;;;5.10;99.90;;;;;;5072741;28;20189;-79
2021/04/09 01:50:13;;;;;;;20.93;9.50;;;5.20;99.90;;;;;;5071378;28;20189;-79
2021/04/09 01:52:42;;;;;;;19.40;8.87;;;5.10;99.90;;;;;;5073257;28;20303;-79
2021/04/09 01:55:10;;;;;;;16.87;8.40;;;5.10;99.90;;;;;;5071363;28;20201;-79
2021/04/09 01:57:39;;;;;;;18.33;9.23;;;5.20;99.90;;;;;;5073159;28;20662;-79
2021/04/09 02:00:09;;;;;;;14.70;8.73;;;5.30;99.90;;;;;;5073972;28;20276;-79
2021/04/09 02:02:37;;;;;;;19.53;9.97;;;5.30;99.90;;;;;;5072799;28;20748;-79
2021/04/09 02:05:04;;;;;;;18.73;8.93;;;5.30;99.90;;;;;;5073023;28;20195;-79
2021/04/09 02:07:33;;;;;;;17.47;9.57;;;5.20;99.90;;;;;;5073269;28;20200;-79
2021/04/09 02:10:02;;;;;;;16.10;9.10;;;5.30;99.90;;;;;;5073305;28;20195;-79
2021/04/09 02:12:28;;;;;;;21.37;9.97;;;5.30;99.90;;;;;;5071271;28;20227;-79
2021/04/09 02:14:56;;;;;;;22.30;9.90;;;5.40;99.90;;;;;;5073812;28;20200;-79
2021/04/09 02:17:23;;;;;;;18.53;9.60;;;5.30;99.90;;;;;;5073035;28;20207;-79
2021/04/09 02:19:50;;;;;;;19.47;9.77;;;5.30;99.90;;;;;;5069658;28;20210;-79
2021/04/09 02:22:18;;;;;;;20.20;9.70;;;5.30;99.90;;;;;;5062939;28;20196;-79
2021/04/09 02:24:48;;;;;;;17.63;9.57;;;5.20;99.90;;;;;;5069301;28;20530;-79
2021/04/09 02:27:15;;;;;;;21.07;9.80;;;5.20;99.90;;;;;;5063589;28;20233;-79
2021/04/09 02:29:43;;;;;;;18.87;9.70;;;5.20;99.90;;;;;;5068994;28;20296;-79
2021/04/09 02:32:09;;;;;;;19.20;9.70;;;5.20;99.90;;;;;;5070072;28;20224;-79
2021/04/09 02:34:36;;;;;;;17.10;9.17;;;5.20;99.90;;;;;;5072772;28;20192;-79
2021/04/09 02:37:02;;;;;;;20.53;9.37;;;5.20;99.90;;;;;;5072354;28;20315;-79
2021/04/09 02:39:31;;;;;;;21.67;9.87;;;5.30;99.90;;;;;;5062505;28;20198;-79
2021/04/09 02:42:07;;;;;;;20.03;10.13;;;5.30;99.90;;;;;;5072473;28;20290;-79
2021/04/09 02:44:34;;;;;;;18.80;9.70;;;5.40;99.90;;;;;;5070954;28;20221;-79
2021/04/09 02:47:05;;;;;;;22.40;9.73;;;5.40;99.90;;;;;;5072615;28;20206;-79
2021/04/09 02:49:38;;;;;;;17.33;9.40;;;5.40;99.90;;;;;;5070646;28;20201;-78
2021/04/09 02:52:07;;;;;;;24.73;10.40;;;5.40;99.90;;;;;;5072308;28;20222;-79
2021/04/09 02:54:35;;;;;;;18.60;9.30;;;5.40;99.90;;;;;;5062513;28;20240;-79
2021/04/09 02:57:04;;;;;;;18.13;9.13;;;5.40;99.90;;;;;;5072113;28;20200;-79
2021/04/09 02:59:32;;;;;;;19.40;10.13;;;5.40;99.90;;;;;;5070267;28;20633;-79
2021/04/09 03:02:00;;;;;;;18.87;10.07;;;5.30;99.90;;;;;;5054286;28;20194;-79
2021/04/09 03:04:29;;;;;;;18.57;9.47;;;5.30;99.90;;;;;;5072839;28;20283;-79
2021/04/09 03:06:56;;;;;;;17.27;9.40;;;5.30;99.90;;;;;;5071636;28;20199;-79
2021/04/09 03:09:23;;;;;;;22.20;9.83;;;5.30;99.90;;;;;;5072907;28;20290;-79
2021/04/09 03:11:49;;;;;;;24.10;9.67;;;5.30;99.90;;;;;;5069469;28;20612;-79
2021/04/09 03:14:17;;;;;;;20.10;9.63;;;5.30;99.90;;;;;;5062368;28;20284;-79
2021/04/09 03:16:48;;;;;;;20.60;9.83;;;5.30;99.90;;;;;;5071429;28;20343;-79
2021/04/09 03:19:14;;;;;;;16.63;8.90;;;5.20;99.90;;;;;;5069302;28;20246;-80
2021/04/09 03:21:41;;;;;;;17.23;9.10;;;5.30;99.90;;;;;;5072315;28;20563;-79
2021/04/09 03:24:08;;;;;;;15.57;8.70;;;5.30;99.90;;;;;;5072291;28;20193;-79
2021/04/09 03:26:35;;;;;;;16.23;8.87;;;5.30;99.90;;;;;;5072329;28;20280;-79
2021/04/09 03:29:02;;;;;;;18.57;8.40;;;5.20;99.90;;;;;;5072101;28;20275;-79
2021/04/09 03:31:29;;;;;;;17.70;9.00;;;5.20;99.90;;;;;;5069105;28;20308;-79
2021/04/09 03:33:56;;;;;;;20.70;8.77;;;5.30;99.90;;;;;;5062717;28;20627;-79
2021/04/09 03:36:23;;;;;;;17.77;8.77;;;5.30;99.90;;;;;;5064324;28;20255;-80
2021/04/09 03:38:49;;;;;;;18.10;8.33;;;5.30;99.90;;;;;;5069585;28;20246;-79
2021/04/09 03:41:16;;;;;;;21.33;8.20;;;5.30;99.90;;;;;;5072067;28;20199;-79
2021/04/09 03:43:42;;;;;;;16.03;8.73;;;5.30;99.90;;;;;;5071719;28;20197;-79
2021/04/09 03:46:09;;;;;;;16.40;8.93;;;5.20;99.90;;;;;;5069761;28;20207;-79
2021/04/09 03:48:36;;;;;;;14.90;8.40;;;5.20;99.90;;;;;;5071773;28;20194;-78
2021/04/09 03:51:03;;;;;;;18.07;8.37;;;5.20;99.90;;;;;;5071381;28;20289;-79
2021/04/09 03:53:29;;;;;;;14.40;7.57;;;5.30;99.90;;;;;;5063270;28;20224;-79
2021/04/09 03:55:56;;;;;;;16.90;8.43;;;5.30;99.90;;;;;;5071906;28;20196;-79
2021/04/09 03:58:22;;;;;;;14.33;8.00;;;5.30;99.90;;;;;;5072059;28;20287;-79
2021/04/09 04:00:48;;;;;;;19.60;8.70;;;5.30;99.90;;;;;;5069592;28;20193;-79
2021/04/09 04:03:15;;;;;;;18.30;8.40;;;5.40;99.90;;;;;;5071563;28;20659;-79
2021/04/09 04:05:44;;;;;;;15.60;7.90;;;5.40;99.90;;;;;;5074753;28;20193;-80
2021/04/09 04:08:10;;;;;;;26.10;9.13;;;5.40;99.90;;;;;;5073167;28;20271;-79
2021/04/09 04:10:36;;;;;;;24.70;9.00;;;5.40;99.90;;;;;;5075641;28;20283;-79
2021/04/09 04:13:03;;;;;;;21.87;8.57;;;5.40;99.90;;;;;;5075739;28;20614;-79
2021/04/09 04:15:29;;;;;;;20.67;8.43;;;5.40;99.90;;;;;;5070631;28;20201;-79
2021/04/09 04:17:56;;;;;;;17.20;9.00;;;5.40;99.90;;;;;;5075773;28;20280;-79
2021/04/09 04:20:22;;;;;;;15.23;8.67;;;5.40;99.90;;;;;;5069692;28;20621;-79
2021/04/09 04:22:50;;;;;;;19.67;9.60;;;5.40;99.90;;;;;;5072529;28;20734;-79
2021/04/09 04:25:16;;;;;;;16.47;9.33;;;5.40;99.90;;;;;;5075310;28;20197;-78
2021/04/09 04:27:42;;;;;;;18.27;9.30;;;5.40;99.90;;;;;;5074662;28;20204;-79
2021/04/09 04:30:10;;;;;;;16.87;9.07;;;5.40;99.90;;;;;;5072717;28;20204;-79
2021/04/09 04:32:36;;;;;;;23.93;9.10;;;5.40;99.90;;;;;;5074527;28;20327;-79
2021/04/09 04:35:03;;;;;;;20.20;9.30;;;5.40;99.90;;;;;;5075803;28;20253;-79
2021/04/09 04:37:29;;;;;;;21.27;9.63;;;5.40;99.90;;;;;;5065219;28;20193;-79
2021/04/09 04:39:57;;;;;;;22.57;9.70;;;5.30;99.90;;;;;;5075384;28;20192;-79
2021/04/09 04:42:23;;;;;;;16.70;9.17;;;5.30;99.90;;;;;;5073394;28;20201;-79
2021/04/09 04:44:49;;;;;;;23.20;10.13;;;5.30;99.90;;;;;;5072787;28;20278;-79
2021/04/09 04:47:16;;;;;;;16.27;8.73;;;5.40;99.90;;;;;;5074794;28;20292;-80
2021/04/09 04:49:42;;;;;;;18.60;9.27;;;5.40;99.90;;;;;;5075333;28;20196;-79
2021/04/09 04:52:08;;;;;;;21.30;9.03;;;5.40;99.90;;;;;;5071855;28;20213;-79
2021/04/09 04:54:35;;;;;;;20.83;9.87;;;5.50;99.90;;;;;;5071952;28;20196;-80
2021/04/09 04:57:02;;;;;;;19.53;9.57;;;5.40;99.90;;;;;;5064153;28;20287;-80
2021/04/09 04:59:28;;;;;;;22.53;10.23;;;5.40;99.90;;;;;;5074594;28;20195;-80
2021/04/09 05:01:55;;;;;;;16.27;9.03;;;5.40;99.90;;;;;;5074912;28;20219;-79
2021/04/09 05:04:21;;;;;;;21.20;9.30;;;5.40;99.90;;;;;;5074602;28;20576;-81
2021/04/09 05:06:48;;;;;;;16.83;9.00;;;5.40;99.90;;;;;;5074056;28;20291;-79
2021/04/09 05:09:14;;;;;;;24.57;9.70;;;5.40;99.90;;;;;;5068567;28;20231;-79
2021/04/09 05:11:41;;;;;;;21.07;9.90;;;5.40;99.90;;;;;;5074342;28;20220;-79
2021/04/09 05:14:08;;;;;;;19.57;9.53;;;5.40;99.90;;;;;;5074572;28;20675;-80
2021/04/09 05:16:35;;;;;;;17.77;8.63;;;5.40;99.90;;;;;;5074185;28;20614;-79
2021/04/09 05:19:01;;;;;;;18.33;9.03;;;5.40;99.90;;;;;;5074301;28;20243;-79
2021/04/09 05:21:28;;;;;;;20.80;9.23;;;5.40;99.90;;;;;;5074339;28;20291;-79
2021/04/09 05:23:54;;;;;;;20.53;9.60;;;5.40;99.90;;;;;;5072550;28;20685;-80
2021/04/09 05:26:23;;;;;;;20.13;9.67;;;5.40;99.90;;;;;;5075343;28;20199;-79
2021/04/09 05:28:49;;;;;;;20.33;9.67;;;5.40;99.90;;;;;;5083059;28;20204;-79
2021/04/09 05:31:17;;;;;;;22.60;9.70;;;5.50;99.90;;;;;;5094547;28;20211;-80
2021/04/09 05:33:43;;;;;;;18.40;9.23;;;5.50;99.90;;;;;;5075822;28;20284;-80
2021/04/09 05:36:09;;;;;;;19.77;9.80;;;5.50;99.90;;;;;;5074312;28;20246;-79
2021/04/09 05:38:36;;;;;;;17.20;9.47;;;5.70;99.90;;;;;;5073660;28;20233;-79
2021/04/09 05:41:02;;;;;;;22.57;9.53;;;5.80;99.90;;;;;;5074096;28;20206;-79
2021/04/09 05:43:29;;;;;;;22.40;9.77;;;5.80;99.90;;;;;;5074080;28;20193;-79
2021/04/09 05:45:55;;;;;;;18.07;9.10;;;5.90;99.90;;;;;;5074182;28;20286;-79
2021/04/09 05:48:23;;;;;;;24.53;9.50;;;6.00;99.90;;;;;;5073643;28;20231;-80
2021/04/09 05:50:49;;;;;;;19.80;10.13;;;6.10;99.90;;;;;;5073830;28;20198;-80
2021/04/09 05:53:15;;;;;;;22.87;9.33;;;6.20;99.90;;;;;;5068780;28;20214;-79
2021/04/09 05:55:42;;;;;;;20.10;9.87;;;6.30;99.90;;;;;;5060851;28;20193;-79
2021/04/09 05:58:08;;;;;;;23.30;9.60;;;6.40;99.90;;;;;;5088982;28;20200;-80
2021/04/09 06:00:34;;;;;;;25.57;10.50;;;6.60;99.90;;;;;;5086674;28;20225;-78
2021/04/09 06:03:01;;;;;;;19.77;10.30;;;6.70;99.90;;;;;;5072817;28;20666;-80
2021/04/09 06:05:29;;;;;;;26.30;10.07;;;6.90;99.90;;;;;;5073293;28;20291;-79
2021/04/09 06:07:55;;;;;;;21.83;10.53;;;6.80;99.90;;;;;;5073670;28;20204;-79
2021/04/09 06:10:22;;;;;;;22.13;10.47;;;7.00;99.90;;;;;;5069232;28;20206;-78
2021/04/09 06:12:49;;;;;;;20.57;10.23;;;7.10;99.90;;;;;;5062455;28;20319;-78
2021/04/09 06:15:15;;;;;;;21.70;10.67;;;7.20;99.90;;;;;;5077140;28;20204;-79
2021/04/09 06:17:42;;;;;;;23.47;11.43;;;7.30;99.90;;;;;;5074420;28;20283;-79
2021/04/09 06:20:10;;;;;;;24.97;11.47;;;7.50;99.90;;;;;;5072658;28;20863;-79
2021/04/09 06:22:37;;;;;;;28.53;12.33;;;7.60;99.90;;;;;;5067845;28;20618;-79
2021/04/09 06:25:09;;;;;;;31.27;12.60;;;7.70;99.90;;;;;;5054603;28;20208;-79
2021/04/09 06:27:36;;;;;;;29.80;13.07;;;7.90;99.90;;;;;;5064910;28;20300;-79
2021/04/09 06:30:03;;;;;;;32.03;13.67;;;8.00;99.90;;;;;;5054538;28;20296;-80
2021/04/09 06:32:30;;;;;;;30.10;12.57;;;8.20;99.90;;;;;;5068901;28;20217;-78
2021/04/09 06:34:56;;;;;;;28.87;14.60;;;8.30;99.90;;;;;;5073137;28;20198;-79
2021/04/09 06:37:23;;;;;;;31.23;13.03;;;8.40;99.90;;;;;;5072115;28;20710;-79
2021/04/09 06:39:50;;;;;;;27.80;12.17;;;8.40;99.90;;;;;;5072013;28;20225;-79
2021/04/09 06:42:21;;;;;;;28.80;12.47;;;8.40;99.90;;;;;;5072113;28;20282;-79
2021/04/09 06:44:49;;;;;;;25.30;12.50;;;8.60;99.90;;;;;;5072217;28;20227;-80
2021/04/09 06:47:17;;;;;;;23.57;12.33;;;8.80;99.90;;;;;;5073185;28;20296;-80
2021/04/09 06:49:43;;;;;;;25.73;12.20;;;8.90;99.90;;;;;;5072478;28;21016;-79
2021/04/09 06:52:10;;;;;;;26.70;11.60;;;9.10;99.90;;;;;;5072372;28;20221;-80
2021/04/09 06:54:37;;;;;;;22.80;11.63;;;9.30;99.90;;;;;;5072456;28;20201;-81
2021/04/09 06:57:07;;;;;;;25.07;12.17;;;9.40;99.90;;;;;;5073029;28;20254;-81
2021/04/09 06:59:34;;;;;;;28.70;11.40;;;9.70;99.90;;;;;;5073404;28;20739;-80
2021/04/09 07:02:02;;;;;;;20.43;11.07;;;9.90;99.90;;;;;;5072022;28;20199;-80
2021/04/09 07:04:29;;;;;;;21.13;9.97;;;10.00;99.90;;;;;;5066359;28;20663;-80
2021/04/09 07:06:55;;;;;;;21.40;11.33;;;10.10;99.90;;;;;;5071881;28;20745;-81
2021/04/09 07:09:21;;;;;;;21.10;10.57;;;10.20;99.90;;;;;;5073376;28;20257;-81
2021/04/09 07:11:51;;;;;;;20.27;10.53;;;10.20;99.90;;;;;;5073120;28;20219;-81
2021/04/09 07:14:19;;;;;;;22.17;10.17;;;10.30;99.90;;;;;;5073785;28;20295;-81
2021/04/09 07:17:03;;;;;;;20.43;9.63;;;10.20;99.90;;;;;;5073526;28;20194;-80
2021/04/09 07:19:34;;;;;;;19.87;9.50;;;10.20;99.90;;;;;;5060545;28;20211;-80
2021/04/09 07:22:02;;;;;;;18.37;9.50;;;10.20;99.90;;;;;;5063376;28;20209;-80
2021/04/09 07:24:28;;;;;;;24.77;9.77;;;10.20;99.90;;;;;;5074595;28;20283;-80
2021/04/09 07:26:55;;;;;;;23.37;10.57;;;10.30;99.90;;;;;;5071782;28;20193;-80
2021/04/09 07:29:38;;;;;;;23.57;10.67;;;10.30;99.90;;;;;;5064001;28;20287;-80
2021/04/09 07:32:23;;;;;;;23.57;9.43;;;10.30;99.90;;;;;;5066253;28;20228;-80
2021/04/09 07:34:54;;;;;;;18.80;9.03;;;10.40;99.90;;;;;;5067982;28;20292;-80
2021/04/09 07:37:21;;;;;;;18.47;9.37;;;10.60;99.90;;;;;;5070139;28;20197;-80
2021/04/09 07:39:52;;;;;;;20.00;9.17;;;10.60;99.90;;;;;;5072533;28;20692;-80
2021/04/09 07:42:18;;;;;;;17.57;8.53;;;10.70;99.90;;;;;;5075729;28;20719;-80
2021/04/09 07:44:58;;;;;;;20.17;9.57;;;10.80;99.90;;;;;;5076667;28;20198;-80
2021/04/09 07:47:25;;;;;;;18.33;8.80;;;10.80;99.90;;;;;;5070866;28;20215;-80
2021/04/09 07:50:06;;;;;;;18.30;9.07;;;10.80;99.90;;;;;;5063041;28;20204;-80
2021/04/09 07:52:43;;;;;;;18.47;8.73;;;11.00;99.90;;;;;;5073597;28;20221;-81
2021/04/09 07:55:15;;;;;;;19.63;8.87;;;11.10;99.90;;;;;;5070672;28;20195;-80
2021/04/09 07:57:42;;;;;;;17.73;7.97;;;11.10;99.90;;;;;;5063673;28;20256;-81
2021/04/09 08:00:26;;;;;;;15.77;7.90;;;11.20;99.90;;;;;;5070016;28;20197;-80
2021/04/09 08:02:53;;;;;;;13.83;7.97;;;11.20;99.90;;;;;;5073320;28;20198;-80
2021/04/09 08:05:23;;;;;;;15.23;8.03;;;11.50;99.90;;;;;;5075245;28;20218;-80
2021/04/09 08:07:49;;;;;;;16.30;7.90;;;11.90;99.90;;;;;;5070759;28;20194;-79
2021/04/09 08:10:17;;;;;;;13.47;7.97;;;12.00;99.90;;;;;;5074251;28;20268;-80
2021/04/09 08:12:51;;;;;;;12.57;7.97;;;12.00;99.90;;;;;;5066979;28;20233;-80
2021/04/09 08:15:20;;;;;;;15.07;7.73;;;12.20;99.90;;;;;;5075885;28;20962;-80
2021/04/09 08:18:01;;;;;;;15.53;8.07;;;12.00;99.90;;;;;;5075166;28;20213;-79
2021/04/09 08:20:29;;;;;;;14.17;7.47;;;12.20;99.90;;;;;;5066240;28;20287;-80
2021/04/09 08:23:02;;;;;;;13.47;7.97;;;12.10;99.90;;;;;;5069349;28;20590;-79
2021/04/09 08:25:30;;;;;;;13.63;7.67;;;12.20;99.90;;;;;;5070207;28;20712;-80
2021/04/09 08:27:58;;;;;;;15.17;8.60;;;12.20;99.90;;;;;;5075616;28;20288;-80
2021/04/09 08:30:27;;;;;;;12.53;6.90;;;12.30;99.90;;;;;;5066742;28;20198;-80
2021/04/09 08:32:57;;;;;;;13.83;6.97;;;12.70;99.90;;;;;;5063632;28;20306;-80
2021/04/09 08:35:24;;;;;;;16.97;7.57;;;12.70;99.90;;;;;;5063739;28;20645;-80
2021/04/09 08:37:51;;;;;;;12.10;7.00;;;12.70;99.90;;;;;;5071824;28;20196;-79
2021/04/09 08:40:19;;;;;;;17.77;6.97;;;12.70;99.90;;;;;;5066950;28;20740;-80
2021/04/09 08:42:45;;;;;;;14.97;6.83;;;12.80;99.90;;;;;;5064759;28;20200;-80
2021/04/09 08:45:13;;;;;;;9.13;6.30;;;13.00;99.90;;;;;;5062628;28;20214;-80
2021/04/09 08:47:41;;;;;;;16.37;7.17;;;13.30;99.90;;;;;;5068438;28;20233;-81
2021/04/09 08:50:10;;;;;;;9.77;6.47;;;13.70;99.90;;;;;;5065839;28;20669;-78
2021/04/09 08:52:41;;;;;;;10.63;6.27;;;14.20;99.90;;;;;;5060720;28;20222;-78
2021/04/09 08:55:10;;;;;;;9.40;6.23;;;15.00;99.90;;;;;;5058616;28;20674;-79
2021/04/09 08:57:37;;;;;;;8.93;6.07;;;15.60;99.90;;;;;;5073648;28;20202;-79
2021/04/09 09:00:09;;;;;;;13.20;5.90;;;15.80;99.90;;;;;;5064644;28;20727;-78
2021/04/09 09:02:45;;;;;;;9.90;6.07;;;15.50;99.90;;;;;;5065520;28;20207;-79
2021/04/09 09:05:14;;;;;;;11.50;6.20;;;15.90;99.90;;;;;;5062956;28;20209;-79
2021/04/09 09:07:57;;;;;;;11.17;5.53;;;16.30;99.90;;;;;;5068439;28;20295;-79
2021/04/09 09:10:57;;;;;;;8.30;5.50;;;16.40;99.90;;;;;;5071449;28;20195;-78
2021/04/09 09:13:28;;;;;;;10.60;5.67;;;16.10;99.90;;;;;;5062252;28;20255;-78
2021/04/09 09:16:00;;;;;;;12.07;5.60;;;15.90;99.90;;;;;;5072426;28;20286;-79
2021/04/09 09:18:52;;;;;;;7.90;5.23;;;16.50;99.90;;;;;;5073222;28;20592;-78
2021/04/09 09:21:41;;;;;;;10.93;6.00;;;17.20;99.90;;;;;;5059888;28;20683;-78
2021/04/09 09:24:19;;;;;;;13.60;5.77;;;17.80;99.90;;;;;;5065570;28;20196;-79
2021/04/09 09:26:48;;;;;;;11.17;5.70;;;17.60;99.90;;;;;;5066297;28;20561;-78
2021/04/09 09:29:18;;;;;;;8.87;5.53;;;17.30;99.90;;;;;;5069521;28;20661;-80
2021/04/09 09:31:55;;;;;;;11.83;6.40;;;16.50;99.90;;;;;;5065403;28;20207;-80
2021/04/09 09:34:40;;;;;;;14.80;6.70;;;16.20;99.90;;;;;;5070131;28;20330;-82
2021/04/09 09:37:12;;;;;;;12.73;6.83;;;15.90;99.90;;;;;;5063032;28;20203;-82
2021/04/09 09:39:40;;;;;;;13.53;6.47;;;15.50;99.90;;;;;;5072044;28;20280;-81
2021/04/09 09:42:11;;;;;;;10.63;5.77;;;15.40;99.90;;;;;;5067514;28;20720;-81
2021/04/09 09:44:44;;;;;;;9.03;6.60;;;15.30;99.90;;;;;;5069462;28;20219;-80
2021/04/09 09:47:22;;;;;;;22.73;6.67;;;15.30;99.90;;;;;;5069342;28;20611;-79
2021/04/09 09:50:15;;;;;;;8.17;5.53;;;15.20;99.90;;;;;;5072307;28;20227;-81
2021/04/09 09:52:44;;;;;;;7.67;5.50;;;15.30;99.90;;;;;;5073315;28;20215;-81
2021/04/09 09:55:12;;;;;;;7.37;5.50;;;15.50;99.90;;;;;;5058068;28;20680;-81
2021/04/09 09:57:47;;;;;;;9.00;5.53;;;15.10;99.90;;;;;;5068776;28;20209;-81
2021/04/09 10:00:23;;;;;;;13.53;6.37;;;15.00;99.90;;;;;;5071144;28;20190;-81
2021/04/09 10:02:50;;;;;;;10.43;5.60;;;15.20;99.90;;;;;;5069263;28;20231;-82
2021/04/09 10:05:16;;;;;;;8.07;5.40;;;15.40;99.90;;;;;;5070759;28;20285;-81
2021/04/09 10:07:45;;;;;;;11.23;5.50;;;15.90;99.90;;;;;;5065216;28;20223;-81
2021/04/09 10:10:14;;;;;;;9.47;6.40;;;16.70;99.90;;;;;;5064117;28;20203;-82
2021/04/09 10:12:40;;;;;;;8.43;4.90;;;17.90;99.90;;;;;;5073647;28;20231;-81
2021/04/09 10:15:08;;;;;;;9.40;5.10;;;17.90;99.90;;;;;;5072047;28;20206;-82
2021/04/09 10:17:34;;;;;;;10.03;5.20;;;17.70;99.90;;;;;;5071303;28;20191;-81
2021/04/09 10:20:03;;;;;;;12.03;5.40;;;17.30;99.90;;;;;;5071695;28;20231;-81
2021/04/09 10:22:32;;;;;;;12.43;5.13;;;16.60;99.90;;;;;;5072231;28;20641;-81
2021/04/09 10:24:59;;;;;;;8.97;5.20;;;15.80;99.90;;;;;;5071623;28;20218;-81
2021/04/09 10:27:25;;;;;;;10.20;5.30;;;15.50;99.90;;;;;;5072187;28;20199;-81
2021/04/09 10:29:52;;;;;;;7.97;5.00;;;15.40;99.90;;;;;;5066244;28;20205;-81
2021/04/09 10:32:20;;;;;;;8.07;4.90;;;15.70;99.90;;;;;;5068288;28;20318;-81
2021/04/09 10:34:47;;;;;;;8.17;5.00;;;16.00;99.90;;;;;;5072139;28;20700;-82
2021/04/09 10:37:25;;;;;;;8.67;4.73;;;16.40;99.90;;;;;;5072156;28;20294;-82
2021/04/09 10:39:53;;;;;;;10.83;5.30;;;16.50;99.90;;;;;;5071090;28;20199;-83
2021/04/09 10:42:21;;;;;;;5.80;4.53;;;17.00;99.90;;;;;;5070214;28;20275;-82
2021/04/09 10:44:47;;;;;;;8.50;4.53;;;17.70;99.90;;;;;;5061131;28;20203;-80
2021/04/09 10:47:14;;;;;;;12.17;5.17;;;17.80;99.90;;;;;;5061652;28;20336;-80
2021/04/09 10:49:42;;;;;;;5.53;4.57;;;17.80;99.90;;;;;;5070164;28;20608;-79
2021/04/09 10:52:10;;;;;;;9.83;5.27;;;17.60;99.90;;;;;;5059977;28;20191;-81
2021/04/09 10:54:38;;;;;;;8.43;5.47;;;17.40;99.90;;;;;;5072284;28;20553;-81
2021/04/09 10:57:06;;;;;;;10.27;4.80;;;17.50;99.90;;;;;;5067120;28;20200;-80
2021/04/09 10:59:35;;;;;;;8.83;5.10;;;17.50;99.90;;;;;;5067031;28;20222;-78
2021/04/09 11:02:04;;;;;;;8.47;5.00;;;17.10;99.90;;;;;;5063209;28;20206;-79
2021/04/09 11:04:33;;;;;;;11.47;5.30;;;16.60;99.90;;;;;;5062526;28;20208;-81
2021/04/09 11:07:03;;;;;;;10.47;5.03;;;16.70;99.90;;;;;;5051256;28;20210;-79
2021/04/09 11:09:42;;;;;;;9.67;5.27;;;17.00;99.90;;;;;;5071753;28;20211;-80
2021/04/09 11:12:20;;;;;;;7.90;5.20;;;17.40;99.90;;;;;;5064058;28;20269;-80
2021/04/09 11:14:47;;;;;;;10.27;5.33;;;18.00;99.90;;;;;;5075811;28;20195;-80
2021/04/09 11:17:24;;;;;;;9.17;6.00;;;18.40;99.90;;;;;;5071757;28;20278;-80
2021/04/09 11:19:54;;;;;;;9.07;5.00;;;19.30;99.90;;;;;;5064051;28;20238;-80
2021/04/09 11:22:21;;;;;;;12.70;5.40;;;19.90;99.90;;;;;;5065226;28;20546;-80
2021/04/09 11:24:57;;;;;;;8.23;4.70;;;20.70;99.90;;;;;;5074181;28;20225;-80
2021/04/09 11:27:25;;;;;;;7.97;5.43;;;21.40;99.90;;;;;;5067603;28;20201;-80
2021/04/09 11:30:12;;;;;;;12.67;4.93;;;21.70;99.90;;;;;;5063379;28;20214;-80
2021/04/09 11:32:41;;;;;;;12.50;5.63;;;21.50;99.90;;;;;;5068697;28;20314;-80
2021/04/09 11:35:11;;;;;;;8.07;5.13;;;20.50;99.90;;;;;;5068026;28;20226;-79
2021/04/09 11:37:47;;;;;;;8.83;4.87;;;20.50;99.90;;;;;;5058166;28;20204;-80
2021/04/09 11:40:15;;;;;;;11.90;5.17;;;20.30;99.90;;;;;;5063165;28;20199;-80
2021/04/09 11:42:42;;;;;;;9.97;4.93;;;20.50;99.90;;;;;;5067772;28;20192;-79
2021/04/09 11:45:12;;;;;;;11.57;5.17;;;20.60;99.90;;;;;;5070887;28;20196;-80
2021/04/09 11:47:40;;;;;;;10.77;5.20;;;20.50;99.90;;;;;;5060723;28;20291;-80
2021/04/09 11:50:17;;;;;;;9.77;4.80;;;20.40;99.90;;;;;;5063907;28;20645;-80
2021/04/09 11:52:52;;;;;;;11.63;5.20;;;19.50;99.90;;;;;;5066919;28;20219;-80
2021/04/09 11:55:19;;;;;;;8.53;5.00;;;18.90;99.90;;;;;;5066045;28;20207;-80
2021/04/09 11:57:46;;;;;;;11.93;4.80;;;18.90;99.90;;;;;;5068039;28;20196;-80
2021/04/09 12:00:22;;;;;;;8.83;5.40;;;19.10;99.90;;;;;;5066643;28;20200;-79
2021/04/09 12:02:53;;;;;;;9.37;5.60;;;19.30;99.90;;;;;;5060023;28;20207;-79
2021/04/09 12:05:21;;;;;;;10.53;4.97;;;19.50;99.90;;;;;;5063586;28;20203;-80
2021/04/09 12:07:48;;;;;;;15.80;5.43;;;19.40;99.90;;;;;;5071444;28;20286;-80
2021/04/09 12:10:15;;;;;;;13.77;5.33;;;19.20;99.90;;;;;;5070693;28;20203;-79
2021/04/09 12:12:42;;;;;;;6.77;4.90;;;19.10;99.90;;;;;;5053319;28;20323;-80
2021/04/09 12:15:10;;;;;;;9.97;5.73;;;19.10;99.90;;;;;;5061586;28;20207;-80
2021/04/09 12:17:37;;;;;;;8.37;5.67;;;19.20;99.90;;;;;;5070744;28;20294;-80
2021/04/09 12:20:08;;;;;;;10.33;5.80;;;18.90;99.90;;;;;;5066607;28;20672;-79
2021/04/09 12:22:34;;;;;;;9.23;5.63;;;18.70;99.90;;;;;;5071669;28;20241;-80
2021/04/09 12:25:01;;;;;;;10.70;5.90;;;18.40;99.90;;;;;;5066489;28;20273;-80
2021/04/09 12:27:27;;;;;;;8.53;5.50;;;18.40;99.90;;;;;;5074433;28;20206;-79
2021/04/09 12:29:53;;;;;;;10.33;5.67;;;18.50;99.90;;;;;;5073247;28;20270;-80
2021/04/09 12:32:20;;;;;;;13.93;5.23;;;18.40;99.90;;;;;;5074364;28;20207;-80
2021/04/09 12:34:47;;;;;;;5.70;4.87;;;18.10;99.90;;;;;;5074799;28;20210;-80
2021/04/09 12:37:14;;;;;;;11.07;5.43;;;18.00;99.90;;;;;;5080640;28;20230;-80
2021/04/09 12:39:40;;;;;;;12.37;5.90;;;18.10;99.90;;;;;;5074878;28;20233;-80
2021/04/09 12:42:08;;;;;;;12.33;5.37;;;18.00;99.90;;;;;;5072815;28;20660;-79
2021/04/09 12:44:35;;;;;;;10.83;5.50;;;18.40;99.90;;;;;;5076002;28;20317;-79
2021/04/09 12:47:02;;;;;;;9.53;5.40;;;18.80;99.90;;;;;;5072957;28;20220;-81
2021/04/09 12:49:28;;;;;;;8.33;5.73;;;18.70;99.90;;;;;;5072484;28;20286;-79
2021/04/09 12:51:56;;;;;;;8.57;5.60;;;18.10;99.90;;;;;;5072998;28;20199;-80